Time;durP1;ratioP1;P1;durP2;ratioP2;P2;SDS_P1;SDS_P2;PMS_P1;PMS_P2;Temp;Humidity;BMP_temperature;BMP_pressure;BME280_temperature;BME280_humidity;BME280_pressure;Samples;Min_cycle;Max_cycle;Signal;HPM_P1;HPM_P2
2024/01/29 00:00:03;;;;;;;3.30;2.37;;;;;;;2.78;70.75;98630.59;5088420;28;20211;-62
2024/01/29 00:02:35;;;;;;;3.47;2.60;;;;;;;2.68;70.10;98630.53;5088376;28;20364;-62
2024/01/29 00:05:02;;;;;;;3.87;2.60;;;;;;;2.35;71.08;98642.06;5087129;28;20200;-60
2024/01/29 00:07:30;;;;;;;4.87;3.00;;;;;;;2.40;70.07;98635.31;5088673;28;20199;-61
2024/01/29 00:09:57;;;;;;;3.63;2.53;;;;;;;2.35;68.13;98638.66;5069102;28;20208;-63
2024/01/29 00:12:24;;;;;;;3.70;2.63;;;;;;;2.19;66.05;98618.88;5088133;28;20196;-63
2024/01/29 00:14:51;;;;;;;5.17;3.20;;;;;;;2.21;67.04;98612.94;5086819;28;20205;-63
2024/01/29 00:17:18;;;;;;;3.87;3.00;;;;;;;2.30;68.37;98633.50;5069843;28;20665;-60
2024/01/29 00:19:45;;;;;;;4.77;3.00;;;;;;;2.23;69.53;98626.59;5069777;28;20254;-62
2024/01/29 00:22:13;;;;;;;4.73;3.00;;;;;;;2.30;70.06;98635.19;5086993;28;20309;-61
2024/01/29 00:24:40;;;;;;;12.87;5.80;;;;;;;2.12;71.92;98624.75;5087876;28;20232;-59
2024/01/29 00:27:07;;;;;;;9.70;5.97;;;;;;;2.02;71.94;98633.97;5086516;28;20201;-60
2024/01/29 00:29:34;;;;;;;9.57;5.20;;;;;;;1.83;73.70;98624.38;5087781;28;20201;-59
2024/01/29 00:32:01;;;;;;;5.50;3.90;;;;;;;1.90;71.97;98626.16;5086251;28;20629;-60
2024/01/29 00:34:28;;;;;;;5.27;3.57;;;;;;;1.84;71.45;98630.31;5087316;28;20205;-61
2024/01/29 00:36:56;;;;;;;4.43;3.40;;;;;;;2.07;69.79;98639.16;5087262;28;20266;-61
2024/01/29 00:39:23;;;;;;;4.03;3.07;;;;;;;1.96;68.89;98633.06;5068853;28;20253;-62
2024/01/29 00:41:50;;;;;;;4.87;3.40;;;;;;;1.99;67.76;98633.94;5087839;28;20243;-60
2024/01/29 00:44:17;;;;;;;5.07;3.30;;;;;;;1.94;67.01;98632.19;5086291;28;20898;-62
2024/01/29 00:46:44;;;;;;;6.43;2.93;;;;;;;2.07;65.02;98651.94;5087837;28;20666;-60
2024/01/29 00:49:11;;;;;;;5.37;3.20;;;;;;;1.72;66.12;98633.56;5086391;28;20208;-60
2024/01/29 00:51:39;;;;;;;5.53;3.87;;;;;;;1.86;68.14;98633.75;5087829;28;20216;-61
2024/01/29 00:54:06;;;;;;;5.60;3.33;;;;;;;1.79;68.99;98631.97;5087139;28;20687;-62
2024/01/29 00:56:33;;;;;;;4.67;3.40;;;;;;;1.81;70.00;98632.84;5087056;28;20552;-59
2024/01/29 00:59:00;;;;;;;5.53;3.40;;;;;;;1.80;70.63;98636.22;5087593;28;20707;-61
2024/01/29 01:01:27;;;;;;;5.90;4.03;;;;;;;1.90;71.65;98635.50;5086646;28;20239;-59
2024/01/29 01:03:55;;;;;;;6.13;4.10;;;;;;;1.99;70.73;98640.75;5087839;28;20196;-59
2024/01/29 01:06:22;;;;;;;2.90;2.47;;;;;;;1.86;67.16;98643.97;5086274;28;20707;-59
2024/01/29 01:08:49;;;;;;;3.90;2.53;;;;;;;1.87;66.40;98620.16;5087160;28;20721;-60
2024/01/29 01:11:16;;;;;;;2.40;2.07;;;;;;;1.90;65.90;98643.16;5086639;28;20866;-60
2024/01/29 01:13:43;;;;;;;3.33;2.20;;;;;;;2.01;66.16;98641.63;5086783;28;20212;-59
2024/01/29 01:16:10;;;;;;;3.00;2.30;;;;;;;2.14;65.35;98644.34;5086961;28;20293;-58
2024/01/29 01:18:37;;;;;;;2.50;2.17;;;;;;;2.18;65.48;98646.13;5086433;28;20200;-61
2024/01/29 01:21:04;;;;;;;2.73;2.30;;;;;;;2.11;64.57;98641.78;5087137;28;20238;-60
2024/01/29 01:23:31;;;;;;;2.20;1.73;;;;;;;2.21;65.27;98638.50;5085569;28;20327;-62
2024/01/29 01:25:58;;;;;;;2.77;2.03;;;;;;;2.11;64.21;98631.56;5087073;28;20196;-59
2024/01/29 01:28:25;;;;;;;4.47;3.13;;;;;;;2.03;68.79;98637.41;5085914;28;20200;-60
2024/01/29 01:30:52;;;;;;;3.50;3.20;;;;;;;2.02;69.89;98639.09;5086552;28;20193;-61
2024/01/29 01:33:19;;;;;;;4.77;3.23;;;;;;;1.89;70.79;98634.66;5086891;28;20200;-60
2024/01/29 01:35:46;;;;;;;4.37;3.30;;;;;;;1.95;71.21;98644.09;5086042;28;20196;-60
2024/01/29 01:38:13;;;;;;;4.60;3.80;;;;;;;1.71;69.98;98639.50;5068734;28;20196;-59
2024/01/29 01:40:41;;;;;;;5.20;3.10;;;;;;;1.64;70.04;98643.69;5085101;28;20200;-59
2024/01/29 01:43:16;;;;;;;4.20;3.07;;;;;;;1.61;69.64;98632.53;5086493;28;20730;-60
2024/01/29 01:45:44;;;;;;;3.53;2.20;;;;;;;1.42;69.04;98622.91;5085695;28;20233;-61
2024/01/29 01:48:12;;;;;;;3.20;2.00;;;;;;;1.57;66.76;98644.41;5086600;28;20203;-61
2024/01/29 01:50:39;;;;;;;1.93;1.57;;;;;;;1.58;67.37;98647.81;5086616;28;20200;-60
2024/01/29 01:53:07;;;;;;;2.27;1.77;;;;;;;1.56;67.12;98645.25;5085374;28;20937;-59
2024/01/29 01:55:34;;;;;;;3.50;2.43;;;;;;;1.62;68.51;98636.81;5086599;28;20196;-62
2024/01/29 01:58:02;;;;;;;3.53;2.20;;;;;;;1.81;67.00;98649.03;5085053;28;20698;-59
2024/01/29 02:00:32;;;;;;;3.17;1.93;;;;;;;1.61;68.37;98651.28;5086617;28;20188;-59
2024/01/29 02:02:59;;;;;;;3.03;2.00;;;;;;;1.41;67.67;98644.16;5085461;28;20233;-59
2024/01/29 02:05:26;;;;;;;2.90;2.03;;;;;;;1.32;67.98;98654.22;5086071;28;20196;-59
2024/01/29 02:07:55;;;;;;;2.80;1.87;;;;;;;1.25;67.53;98662.59;5086482;28;20686;-59
2024/01/29 02:10:23;;;;;;;1.90;1.70;;;;;;;1.34;66.66;98663.59;5067758;28;20195;-59
2024/01/29 02:12:52;;;;;;;2.37;1.57;;;;;;;1.32;67.75;98661.88;5086107;28;20325;-58
2024/01/29 02:15:19;;;;;;;2.63;2.00;;;;;;;1.40;67.04;98665.41;5085282;28;20200;-59
2024/01/29 02:17:47;;;;;;;2.83;2.10;;;;;;;1.32;67.56;98672.09;5086596;28;20203;-59
2024/01/29 02:20:14;;;;;;;2.93;2.00;;;;;;;1.35;67.33;98683.19;5085413;28;20581;-58
2024/01/29 02:22:44;;;;;;;3.63;2.30;;;;;;;1.49;67.14;98691.06;5085673;28;20246;-59
2024/01/29 02:25:14;;;;;;;3.10;2.20;;;;;;;1.59;67.78;98696.34;5085950;28;20192;-58
2024/01/29 02:27:42;;;;;;;3.77;2.70;;;;;;;1.59;68.92;98681.03;5084945;28;20708;-60
2024/01/29 02:30:09;;;;;;;3.83;3.07;;;;;;;1.55;70.35;98686.91;5086426;28;20200;-59
2024/01/29 02:32:36;;;;;;;4.80;3.30;;;;;;;1.56;69.86;98686.09;5085046;28;20250;-60
2024/01/29 02:35:04;;;;;;;4.43;3.23;;;;;;;1.67;71.35;98683.69;5086355;28;20197;-61
2024/01/29 02:37:31;;;;;;;4.87;3.33;;;;;;;1.73;71.88;98675.28;5085332;28;20567;-60
2024/01/29 02:39:58;;;;;;;5.17;3.50;;;;;;;1.74;70.37;98684.66;5085697;28;20540;-60
2024/01/29 02:42:25;;;;;;;7.30;5.23;;;;;;;1.81;70.42;98692.44;5086275;28;20220;-60
2024/01/29 02:44:52;;;;;;;5.90;4.27;;;;;;;1.52;70.95;98684.34;5084991;28;20192;-62
2024/01/29 02:47:20;;;;;;;5.57;3.87;;;;;;;1.47;71.12;98685.06;5086471;28;20231;-60
2024/01/29 02:49:47;;;;;;;4.80;3.63;;;;;;;1.34;71.19;98663.59;5084645;28;20604;-61
2024/01/29 02:52:14;;;;;;;2.93;2.13;;;;;;;1.39;69.94;98679.84;5086183;28;20988;-59
2024/01/29 02:54:42;;;;;;;2.97;2.20;;;;;;;1.29;69.28;98688.19;5066759;28;20277;-61
2024/01/29 02:57:09;;;;;;;3.20;2.33;;;;;;;1.37;68.99;98695.97;5089225;28;20232;-61
2024/01/29 02:59:36;;;;;;;3.27;2.87;;;;;;;1.45;69.97;98687.63;5089838;28;20634;-60
2024/01/29 03:02:03;;;;;;;4.37;3.07;;;;;;;1.42;71.37;98690.09;5088579;28;20322;-59
2024/01/29 03:04:30;;;;;;;5.10;3.20;;;;;;;1.47;72.26;98693.59;5089648;28;20300;-62
2024/01/29 03:06:58;;;;;;;4.57;3.30;;;;;;;1.59;71.38;98696.34;5088217;28;20201;-59
2024/01/29 03:09:25;;;;;;;5.73;3.50;;;;;;;1.54;72.54;98682.66;5071911;28;20204;-59
2024/01/29 03:11:52;;;;;;;4.40;3.20;;;;;;;1.51;71.85;98685.16;5088642;28;20208;-59
2024/01/29 03:14:19;;;;;;;3.97;3.00;;;;;;;1.62;71.20;98695.53;5089363;28;20300;-59
2024/01/29 03:16:46;;;;;;;5.23;3.40;;;;;;;1.51;71.79;98689.41;5089407;28;20228;-58
2024/01/29 03:19:13;;;;;;;4.93;3.63;;;;;;;1.56;71.80;98685.22;5070345;28;20221;-62
2024/01/29 03:21:40;;;;;;;5.67;3.53;;;;;;;1.53;nan;98696.25;5089621;28;20246;-60
2024/01/29 03:24:08;;;;;;;5.87;3.67;;;;;;;1.56;71.89;98691.22;5087849;28;20289;-60
2024/01/29 03:26:35;;;;;;;4.97;3.20;;;;;;;1.66;71.76;98692.19;5071293;28;20189;-60
2024/01/29 03:29:02;;;;;;;3.90;2.77;;;;;;;1.69;71.20;98689.69;5088236;28;20341;-62
2024/01/29 03:31:29;;;;;;;6.53;3.43;;;;;;;1.59;71.75;98693.78;5089382;28;20254;-60
2024/01/29 03:33:56;;;;;;;5.00;2.87;;;;;;;1.40;71.82;98676.44;5088601;28;20190;-63
2024/01/29 03:36:23;;;;;;;3.07;2.40;;;;;;;1.41;70.48;98688.41;5088184;28;20200;-61
2024/01/29 03:38:50;;;;;;;3.10;2.43;;;;;;;1.50;70.70;98696.22;5089100;28;20200;-62
2024/01/29 03:41:18;;;;;;;3.33;2.60;;;;;;;1.47;71.06;98690.19;5087628;28;20298;-63
2024/01/29 03:43:45;;;;;;;4.87;3.17;;;;;;;1.56;72.42;98690.34;5089213;28;20254;-62
2024/01/29 03:46:12;;;;;;;4.77;3.20;;;;;;;1.58;72.27;98686.13;5087849;28;20193;-61
2024/01/29 03:48:39;;;;;;;4.90;3.90;;;;;;;1.64;72.02;98689.63;5088977;28;20265;-60
2024/01/29 03:51:06;;;;;;;5.83;3.53;;;;;;;1.47;71.23;98695.28;5069624;28;20203;-62
2024/01/29 03:53:33;;;;;;;6.00;3.93;;;;;;;1.50;72.24;98696.22;5088400;28;20322;-59
2024/01/29 03:56:00;;;;;;;5.87;4.03;;;;;;;1.55;72.31;98704.78;5088742;28;20204;-61
2024/01/29 03:58:27;;;;;;;4.93;3.60;;;;;;;1.42;72.68;98691.81;5087426;28;20287;-59
2024/01/29 04:00:54;;;;;;;5.93;3.83;;;;;;;1.57;71.15;98692.91;5070228;28;20223;-63
2024/01/29 04:03:21;;;;;;;4.73;3.20;;;;;;;1.24;71.42;98678.72;5087282;28;20212;-63
2024/01/29 04:05:49;;;;;;;3.30;2.30;;;;;;;1.29;69.71;98685.66;5088417;28;20208;-63
2024/01/29 04:08:16;;;;;;;5.83;3.20;;;;;;;1.42;71.19;98696.91;5087751;28;20686;-63
2024/01/29 04:10:43;;;;;;;5.33;3.50;;;;;;;1.50;71.71;98688.56;5088042;28;20284;-60
2024/01/29 04:13:10;;;;;;;4.33;2.97;;;;;;;1.58;72.07;98699.75;5088124;28;20324;-62
2024/01/29 04:15:37;;;;;;;5.60;3.20;;;;;;;1.76;71.76;98703.41;5087448;28;20585;-59
2024/01/29 04:18:04;;;;;;;5.27;3.37;;;;;;;1.74;72.00;98705.94;5086698;28;20281;-62
2024/01/29 04:20:31;;;;;;;4.50;3.20;;;;;;;1.37;71.99;98642.38;5086823;28;20715;-61
2024/01/29 04:22:58;;;;;;;6.07;3.90;;;;;;;1.55;72.62;98692.03;5088006;28;20309;-62
2024/01/29 04:25:26;;;;;;;8.20;4.83;;;;;;;1.71;71.45;98713.53;5087235;28;20599;-62
2024/01/29 04:27:53;;;;;;;6.93;4.70;;;;;;;1.61;72.34;98704.88;5087673;28;20199;-62
2024/01/29 04:30:20;;;;;;;4.33;3.30;;;;;;;1.52;70.30;98694.53;5087872;28;20584;-62
2024/01/29 04:32:47;;;;;;;8.00;5.23;;;;;;;1.34;71.17;98709.53;5087216;28;20208;-62
2024/01/29 04:35:14;;;;;;;7.67;4.70;;;;;;;1.49;71.14;98707.25;5087911;28;20253;-61
2024/01/29 04:37:41;;;;;;;5.93;3.77;;;;;;;1.34;72.53;98701.03;5068685;28;20207;-60
2024/01/29 04:40:08;;;;;;;6.03;4.17;;;;;;;1.44;72.58;98721.59;5086407;28;20201;-61
2024/01/29 04:42:36;;;;;;;5.47;4.33;;;;;;;1.25;72.56;98709.38;5068313;28;20314;-60
2024/01/29 04:45:03;;;;;;;3.57;2.90;;;;;;;1.20;72.18;98689.72;5087487;28;20613;-61
2024/01/29 04:47:31;;;;;;;4.10;3.03;;;;;;;1.32;72.72;98712.91;5086618;28;20204;-62
2024/01/29 04:49:59;;;;;;;3.77;2.63;;;;;;;1.38;72.48;98718.13;5083387;28;20744;-61
2024/01/29 04:52:26;;;;;;;6.43;3.20;;;;;;;1.45;72.77;98720.78;5087363;28;20192;-60
2024/01/29 04:54:53;;;;;;;4.67;3.13;;;;;;;1.53;73.26;98721.78;5085898;28;20216;-61
2024/01/29 04:57:22;;;;;;;5.37;3.43;;;;;;;1.59;72.42;98734.63;5085116;28;20201;-60
2024/01/29 04:59:49;;;;;;;5.63;3.53;;;;;;;1.58;73.65;98738.03;5085971;28;20201;-62
2024/01/29 05:02:16;;;;;;;5.90;3.80;;;;;;;1.57;73.19;98727.78;5086676;28;20670;-63
2024/01/29 05:04:44;;;;;;;5.03;3.80;;;;;;;1.82;73.60;98752.88;5067843;28;20269;-60
2024/01/29 05:07:11;;;;;;;5.90;3.97;;;;;;;1.82;71.51;98754.56;5085707;28;20192;-60
2024/01/29 05:10:18;;;;;;;6.53;4.00;;;;;;;1.76;71.25;98752.78;5086280;28;20197;-62
2024/01/29 05:13:38;;;;;;;4.30;2.97;;;;;;;1.67;72.19;98749.22;5084783;28;20681;-60
2024/01/29 05:16:59;;;;;;;5.10;3.57;;;;;;;1.47;72.79;98744.66;5084724;28;20188;-62
2024/01/29 05:19:43;;;;;;;5.73;3.50;;;;;;;1.35;72.03;98754.66;5085442;28;20606;-61
2024/01/29 05:22:12;;;;;;;5.60;3.50;;;;;;;1.27;72.19;98748.56;5068045;28;20204;-60
2024/01/29 05:24:40;;;;;;;5.73;3.93;;;;;;;1.25;70.84;98745.13;5085462;28;20251;-59
2024/01/29 05:27:07;;;;;;;5.07;2.57;;;;;;;0.99;70.99;98720.78;5086900;28;20508;-60
2024/01/29 05:29:34;;;;;;;4.30;2.90;;;;;;;1.14;71.72;98753.38;5085313;28;20196;-60
2024/01/29 05:32:01;;;;;;;5.87;3.60;;;;;;;1.17;71.04;98748.34;5086905;28;20214;-62
2024/01/29 05:34:28;;;;;;;4.50;3.00;;;;;;;1.18;70.20;98750.91;5085357;28;20206;-61
2024/01/29 05:36:55;;;;;;;6.37;3.77;;;;;;;1.17;71.48;98746.66;5086573;28;20249;-59
2024/01/29 05:39:22;;;;;;;8.47;4.13;;;;;;;1.09;71.31;98752.47;5085918;28;20202;-62
2024/01/29 05:41:49;;;;;;;4.07;3.20;;;;;;;1.11;72.14;98743.13;5085473;28;20192;-61
2024/01/29 05:44:17;;;;;;;5.03;3.60;;;;;;;1.09;71.98;98737.16;5086360;28;20224;-61
2024/01/29 05:46:44;;;;;;;5.93;3.30;;;;;;;1.03;72.00;98742.13;5066424;28;20196;-59
2024/01/29 05:49:11;;;;;;;4.73;3.40;;;;;;;1.08;71.02;98756.69;5086244;28;20212;-59
2024/01/29 05:51:38;;;;;;;3.97;2.60;;;;;;;0.98;67.69;98749.69;5084759;28;20196;-62
2024/01/29 05:54:05;;;;;;;5.60;3.07;;;;;;;0.99;68.68;98764.16;5086183;28;20188;-62
2024/01/29 05:56:32;;;;;;;4.40;3.30;;;;;;;1.00;68.64;98768.44;5085628;28;20196;-59
2024/01/29 05:58:59;;;;;;;3.70;2.73;;;;;;;1.13;68.15;98780.59;5085561;28;20245;-63
2024/01/29 06:01:26;;;;;;;5.97;4.10;;;;;;;0.99;67.79;98735.25;5085875;28;20200;-61
2024/01/29 06:03:54;;;;;;;5.57;3.03;;;;;;;1.37;67.00;98782.75;5066190;28;20248;-61
2024/01/29 06:06:21;;;;;;;4.53;3.30;;;;;;;1.67;66.85;98790.91;5068051;28;20692;-61
2024/01/29 06:08:48;;;;;;;8.93;5.27;;;;;;;1.72;66.16;98783.34;5084541;28;20713;-60
2024/01/29 06:11:16;;;;;;;6.33;4.40;;;;;;;1.81;67.01;98804.81;5085916;28;20257;-61
2024/01/29 06:13:43;;;;;;;5.63;3.73;;;;;;;1.73;66.35;98798.72;5084871;28;20254;-63
2024/01/29 06:16:10;;;;;;;6.90;3.90;;;;;;;1.91;66.54;98799.00;5085305;28;20193;-60
2024/01/29 06:18:37;;;;;;;5.50;4.10;;;;;;;2.00;66.15;98795.75;5086009;28;20842;-62
2024/01/29 06:21:05;;;;;;;4.20;3.30;;;;;;;2.01;64.76;98795.78;5066560;28;20224;-61
2024/01/29 06:23:32;;;;;;;7.60;3.90;;;;;;;1.84;64.40;98796.31;5085793;28;20245;-59
2024/01/29 06:25:59;;;;;;;6.77;4.20;;;;;;;1.89;65.38;98797.25;5084348;28;20236;-61
2024/01/29 06:28:26;;;;;;;6.43;4.23;;;;;;;1.84;65.63;98794.63;5085658;28;20595;-60
2024/01/29 06:30:53;;;;;;;8.60;5.10;;;;;;;1.93;66.21;98793.91;5067230;28;20196;-60
2024/01/29 06:33:20;;;;;;;7.73;4.47;;;;;;;1.87;64.62;98783.59;5089490;28;20222;-61
2024/01/29 06:35:47;;;;;;;5.47;3.90;;;;;;;1.80;65.75;98803.06;5089752;28;20192;-61
2024/01/29 06:38:14;;;;;;;4.83;2.93;;;;;;;1.50;66.40;98811.09;5088721;28;20689;-59
2024/01/29 06:40:41;;;;;;;3.57;2.53;;;;;;;1.42;66.06;98809.22;5089629;28;20258;-59
2024/01/29 06:43:09;;;;;;;4.70;3.57;;;;;;;1.32;65.90;98813.28;5088089;28;20626;-60
2024/01/29 06:45:36;;;;;;;7.43;4.00;;;;;;;1.52;66.97;98801.75;5089867;28;20209;-59
2024/01/29 06:48:05;;;;;;;5.50;3.80;;;;;;;1.60;66.67;98809.53;5088719;28;20203;-62
2024/01/29 06:50:33;;;;;;;7.00;4.70;;;;;;;1.74;66.04;98820.84;5089564;28;20210;-60
2024/01/29 06:53:00;;;;;;;10.63;5.20;;;;;;;1.93;65.84;98801.59;5089232;28;20232;-60
2024/01/29 06:55:27;;;;;;;11.33;7.73;;;;;;;2.22;65.80;98808.00;5088291;28;20685;-61
2024/01/29 06:57:54;;;;;;;10.63;5.40;;;;;;;2.61;65.78;98820.50;5089346;28;20253;-63
2024/01/29 07:00:22;;;;;;;8.10;4.97;;;;;;;2.80;64.90;98815.69;5088287;28;20211;-63
2024/01/29 07:02:49;;;;;;;8.37;6.17;;;;;;;3.07;63.81;98816.00;5089339;28;20232;-61
2024/01/29 07:05:16;;;;;;;8.43;5.80;;;;;;;3.26;62.88;98817.94;5087744;28;20205;-61
2024/01/29 07:07:43;;;;;;;13.17;7.43;;;;;;;3.25;62.66;98806.00;5088920;28;20220;-62
2024/01/29 07:10:11;;;;;;;11.73;5.70;;;;;;;3.23;62.19;98810.25;5069812;28;20257;-61
2024/01/29 07:12:38;;;;;;;12.70;5.60;;;;;;;3.12;61.33;98762.31;5087909;28;20199;-61
2024/01/29 07:15:05;;;;;;;7.07;4.40;;;;;;;3.38;60.54;98836.84;5085887;28;20198;-61
2024/01/29 07:17:36;;;;;;;8.33;4.13;;;;;;;3.46;58.59;98835.25;5087310;28;20203;-61
2024/01/29 07:20:05;;;;;;;6.90;4.10;;;;;;;3.53;57.83;98824.19;5089156;28;20632;-63
2024/01/29 07:22:37;;;;;;;7.87;5.30;;;;;;;3.57;57.92;98826.81;5068917;28;20564;-62
2024/01/29 07:25:06;;;;;;;10.57;6.03;;;;;;;3.41;59.48;98821.50;5087212;28;20216;-62
2024/01/29 07:27:33;;;;;;;6.33;4.13;;;;;;;3.13;57.76;98835.72;5087318;28;20209;-64
2024/01/29 07:30:00;;;;;;;4.73;3.00;;;;;;;2.57;58.88;98844.31;5086443;28;20204;-60
2024/01/29 07:32:33;;;;;;;4.83;3.20;;;;;;;1.98;59.56;98825.53;5087175;28;20656;-60
2024/01/29 07:35:10;;;;;;;2.57;1.83;;;;;;;1.62;61.04;98829.16;5067814;28;20199;-61
2024/01/29 07:37:38;;;;;;;2.20;1.77;;;;;;;1.37;60.92;98796.38;5052887;28;20203;-60
2024/01/29 07:40:08;;;;;;;2.43;1.80;;;;;;;1.35;60.32;98830.34;5085930;28;20192;-62
2024/01/29 07:42:36;;;;;;;2.07;1.73;;;;;;;1.39;61.07;98827.00;5086722;28;20205;-62
2024/01/29 07:45:03;;;;;;;3.50;2.37;;;;;;;1.44;60.12;98830.53;5088018;28;20724;-63
2024/01/29 07:47:31;;;;;;;2.50;2.03;;;;;;;1.55;59.88;98834.09;5067925;28;20223;-63
2024/01/29 07:49:58;;;;;;;5.13;2.90;;;;;;;1.63;60.38;98837.66;5087892;28;20282;-62
2024/01/29 07:52:26;;;;;;;11.20;4.67;;;;;;;1.74;59.97;98835.31;5068398;28;20188;-61
2024/01/29 07:54:53;;;;;;;5.13;3.47;;;;;;;1.82;60.37;98838.84;5087373;28;20805;-60
2024/01/29 07:57:20;;;;;;;2.83;2.43;;;;;;;1.41;58.86;98793.03;5085953;28;20231;-61
2024/01/29 07:59:47;;;;;;;2.73;2.20;;;;;;;1.74;59.73;98856.59;5069140;28;20189;-62
2024/01/29 08:02:14;;;;;;;6.10;3.60;;;;;;;1.79;58.66;98826.91;5087110;28;20229;-60
2024/01/29 08:04:42;;;;;;;6.13;3.27;;;;;;;1.73;59.09;98831.91;5086026;28;20225;-63
2024/01/29 08:07:09;;;;;;;7.43;4.37;;;;;;;1.86;59.34;98848.28;5052325;28;20610;-60
2024/01/29 08:09:36;;;;;;;3.20;1.83;;;;;;;1.73;58.74;98838.72;5085467;28;20236;-60
2024/01/29 08:12:05;;;;;;;4.90;3.20;;;;;;;1.74;59.69;98832.75;5087146;28;20219;-60
2024/01/29 08:14:32;;;;;;;16.27;9.53;;;;;;;1.90;59.91;98840.69;5085608;28;20196;-61
2024/01/29 08:16:59;;;;;;;4.07;2.30;;;;;;;1.75;58.63;98834.47;5086556;28;20193;-62
2024/01/29 08:19:26;;;;;;;1.90;1.67;;;;;;;1.70;59.56;98866.72;5086485;28;20188;-62
2024/01/29 08:21:54;;;;;;;5.00;3.37;;;;;;;1.79;60.51;98872.00;5086137;28;20249;-61
2024/01/29 08:24:22;;;;;;;4.33;2.73;;;;;;;1.81;59.01;98849.91;5045254;28;1189725;-60
2024/01/29 08:26:49;;;;;;;2.97;2.30;;;;;;;1.76;59.48;98866.81;5086281;28;20200;-61
2024/01/29 08:29:16;;;;;;;2.53;2.13;;;;;;;1.88;59.49;98877.25;5087618;28;20203;-61
2024/01/29 08:31:43;;;;;;;3.40;1.93;;;;;;;1.67;59.30;98856.47;5085882;28;20296;-61
2024/01/29 08:34:12;;;;;;;3.33;2.53;;;;;;;1.62;59.33;98862.34;5087687;28;20287;-62
2024/01/29 08:36:39;;;;;;;2.27;1.90;;;;;;;1.63;60.42;98876.81;5086686;28;20254;-61
2024/01/29 08:39:06;;;;;;;2.10;1.90;;;;;;;1.61;60.27;98878.50;5086979;28;20204;-59
2024/01/29 08:41:33;;;;;;;6.80;3.00;;;;;;;1.54;61.11;98876.66;5086757;28;20200;-62
2024/01/29 08:44:03;;;;;;;4.50;2.50;;;;;;;1.53;61.80;98872.38;5085296;28;20718;-60
2024/01/29 08:46:30;;;;;;;5.77;2.90;;;;;;;1.71;60.79;98887.16;5086856;28;20223;-60
2024/01/29 08:48:57;;;;;;;3.73;2.70;;;;;;;1.87;60.24;98885.78;5085440;28;20844;-62
2024/01/29 08:51:25;;;;;;;5.83;3.90;;;;;;;2.01;60.64;98891.97;5086427;28;20277;-60
2024/01/29 08:53:52;;;;;;;8.27;4.37;;;;;;;2.17;60.88;98883.72;5085045;28;20212;-60
2024/01/29 08:56:20;;;;;;;2.33;2.13;;;;;;;2.09;58.19;98898.06;5086174;28;20291;-60
2024/01/29 08:58:47;;;;;;;4.10;2.77;;;;;;;2.42;59.37;98891.84;5068606;28;20225;-61
2024/01/29 09:01:14;;;;;;;4.23;2.27;;;;;;;2.43;58.80;98893.53;5085377;28;20582;-61
2024/01/29 09:03:42;;;;;;;3.13;2.60;;;;;;;2.32;58.27;98896.78;5086905;28;20691;-60
2024/01/29 09:06:09;;;;;;;7.37;4.10;;;;;;;2.46;59.39;98887.63;5085252;28;20292;-59
2024/01/29 09:08:37;;;;;;;2.50;1.73;;;;;;;2.58;57.03;98895.47;5086713;28;20195;-60
2024/01/29 09:11:04;;;;;;;4.10;2.77;;;;;;;2.81;57.41;98912.03;5050784;28;20595;-60
2024/01/29 09:13:31;;;;;;;3.00;2.17;;;;;;;2.59;57.66;98888.69;5086027;28;20227;-61
2024/01/29 09:15:59;;;;;;;4.00;2.73;;;;;;;2.79;57.60;98900.91;5086251;28;20197;-60
2024/01/29 09:18:26;;;;;;;3.50;2.67;;;;;;;2.71;56.92;98889.72;5067263;28;20601;-60
2024/01/29 09:20:53;;;;;;;3.73;2.83;;;;;;;2.59;57.71;98888.69;5086729;28;20205;-60
2024/01/29 09:23:20;;;;;;;3.87;2.80;;;;;;;2.72;57.03;98876.06;5084802;28;20286;-62
2024/01/29 09:25:47;;;;;;;3.90;3.17;;;;;;;2.82;57.25;98906.09;5086646;28;20245;-60
2024/01/29 09:28:15;;;;;;;3.10;2.63;;;;;;;2.75;57.49;98868.47;5066787;28;20241;-62
2024/01/29 09:30:42;;;;;;;3.83;2.70;;;;;;;2.54;57.22;98863.03;5086443;28;20258;-62
2024/01/29 09:33:12;;;;;;;4.97;2.70;;;;;;;2.71;57.53;98871.81;5067937;28;20184;-60
2024/01/29 09:35:48;;;;;;;4.47;2.43;;;;;;;2.93;57.83;98876.38;5084648;28;20616;-59
2024/01/29 09:38:15;;;;;;;3.73;2.47;;;;;;;2.82;56.61;98849.81;5086705;28;20675;-60
2024/01/29 09:40:44;;;;;;;4.73;2.47;;;;;;;2.81;56.86;98875.34;5084741;28;20224;-61
2024/01/29 09:43:12;;;;;;;4.87;2.47;;;;;;;2.75;56.95;98865.91;5086076;28;20208;-61
2024/01/29 09:45:40;;;;;;;3.63;2.70;;;;;;;3.07;57.40;98862.06;5085625;28;20264;-61
2024/01/29 09:48:11;;;;;;;2.80;2.53;;;;;;;3.34;56.08;98870.94;5085640;28;20694;-62
2024/01/29 09:50:40;;;;;;;5.40;3.37;;;;;;;3.36;56.53;98862.41;5086330;28;20285;-63
2024/01/29 09:53:07;;;;;;;6.80;3.60;;;;;;;3.47;56.72;98863.41;5084855;28;20267;-62
2024/01/29 09:55:34;;;;;;;4.27;2.57;;;;;;;3.18;55.96;98855.41;5086220;28;20196;-60
2024/01/29 09:58:02;;;;;;;8.10;2.77;;;;;;;3.46;56.25;98864.28;5084259;28;20270;-59
2024/01/29 10:00:29;;;;;;;3.83;2.53;;;;;;;3.52;56.22;98881.41;5086220;28;20212;-62
2024/01/29 10:03:07;;;;;;;4.33;3.00;;;;;;;3.07;56.73;98851.84;5085088;28;20287;-60
2024/01/29 10:05:36;;;;;;;3.17;2.40;;;;;;;3.10;57.78;98836.53;5085231;28;20440;-61
2024/01/29 10:08:04;;;;;;;6.03;4.10;;;;;;;3.06;57.35;98860.38;5085850;28;20196;-60
2024/01/29 10:10:31;;;;;;;6.70;3.30;;;;;;;3.42;57.45;98852.25;5085089;28;20208;-60
2024/01/29 10:13:05;;;;;;;4.37;2.70;;;;;;;2.70;58.50;98875.19;5085994;28;20582;-64
2024/01/29 10:15:33;;;;;;;5.20;3.13;;;;;;;2.19;59.21;98841.19;5066501;28;20195;-60
2024/01/29 10:18:00;;;;;;;5.20;3.23;;;;;;;2.43;59.57;98877.38;5085837;28;20188;-61
2024/01/29 10:20:28;;;;;;;5.47;3.40;;;;;;;2.43;60.15;98864.59;5085179;28;20304;-61
2024/01/29 10:23:02;;;;;;;6.20;3.90;;;;;;;2.22;61.22;98829.34;5085026;28;20212;-63
2024/01/29 10:25:30;;;;;;;5.00;3.40;;;;;;;2.34;61.06;98843.97;5085309;28;20232;-63
2024/01/29 10:28:26;;;;;;;6.27;3.47;;;;;;;2.33;60.69;98852.47;5084129;28;20223;-60
2024/01/29 10:30:55;;;;;;;5.27;3.60;;;;;;;2.44;60.27;98826.25;5083254;28;20196;-62
2024/01/29 10:33:24;;;;;;;5.03;3.60;;;;;;;2.61;59.56;98839.28;5084976;28;20224;-64
2024/01/29 10:35:51;;;;;;;5.70;4.03;;;;;;;2.74;60.14;98838.59;5067047;28;20710;-63
2024/01/29 10:38:22;;;;;;;5.87;3.87;;;;;;;2.66;59.63;98842.75;5085920;28;20552;-63
2024/01/29 10:40:49;;;;;;;4.93;3.33;;;;;;;2.65;58.24;98825.69;5084983;28;20254;-60
2024/01/29 10:43:21;;;;;;;6.87;4.13;;;;;;;2.93;58.60;98830.34;5085753;28;20193;-61
2024/01/29 10:45:54;;;;;;;6.87;4.20;;;;;;;2.98;57.65;98825.28;5083943;28;20228;-62
2024/01/29 10:48:22;;;;;;;5.70;3.70;;;;;;;2.85;57.94;98852.41;5067731;28;20279;-61
2024/01/29 10:50:51;;;;;;;5.73;4.20;;;;;;;3.14;57.11;98837.41;5085125;28;20201;-61
2024/01/29 10:53:19;;;;;;;6.20;3.60;;;;;;;3.11;56.89;98827.16;5084629;28;20284;-60
2024/01/29 10:55:50;;;;;;;6.37;4.00;;;;;;;3.34;56.38;98827.44;5085449;28;20312;-61
2024/01/29 10:58:19;;;;;;;6.37;4.07;;;;;;;3.72;55.37;98833.78;5084033;28;20230;-62
2024/01/29 11:00:51;;;;;;;5.07;3.50;;;;;;;3.88;55.82;98792.97;5085613;28;20200;-59
2024/01/29 11:03:21;;;;;;;7.37;4.90;;;;;;;4.38;54.36;98819.00;5084162;28;20205;-61
2024/01/29 11:05:58;;;;;;;8.33;5.07;;;;;;;4.08;54.24;98834.16;5066867;28;20225;-63
2024/01/29 11:08:32;;;;;;;5.33;3.10;;;;;;;3.54;54.47;98819.13;5085170;28;20240;-61
2024/01/29 11:11:01;;;;;;;5.00;3.30;;;;;;;3.00;55.34;98785.22;5084221;28;20574;-60
2024/01/29 11:13:33;;;;;;;4.57;3.33;;;;;;;3.06;55.90;98811.75;5085553;28;20656;-62
2024/01/29 11:16:00;;;;;;;5.50;3.43;;;;;;;3.36;56.48;98787.34;5083314;28;20200;-61
2024/01/29 11:18:33;;;;;;;5.50;3.63;;;;;;;3.59;55.36;98793.53;5070935;28;20386;-61
2024/01/29 11:21:01;;;;;;;7.37;3.93;;;;;;;4.08;55.42;98795.69;5087803;28;20204;-60
2024/01/29 11:23:28;;;;;;;4.23;3.33;;;;;;;4.16;53.79;98801.75;5069707;28;20221;-60
2024/01/29 11:26:00;;;;;;;5.97;4.10;;;;;;;4.01;54.90;98797.34;5088971;28;20766;-61
2024/01/29 11:28:28;;;;;;;4.97;3.30;;;;;;;3.47;56.35;98796.84;5087549;28;20189;-59
2024/01/29 11:30:55;;;;;;;7.60;4.27;;;;;;;3.18;57.54;98800.78;5088685;28;20612;-61
2024/01/29 11:33:24;;;;;;;5.93;4.20;;;;;;;3.68;57.44;98807.31;5069263;28;20258;-61
2024/01/29 11:35:56;;;;;;;6.37;4.10;;;;;;;3.85;56.72;98794.66;5088756;28;20232;-61
2024/01/29 11:38:24;;;;;;;5.87;3.70;;;;;;;3.73;55.25;98805.63;5088032;28;20301;-61
2024/01/29 11:40:52;;;;;;;5.07;3.37;;;;;;;3.36;55.66;98810.38;5069841;28;20287;-60
2024/01/29 11:43:20;;;;;;;4.60;3.33;;;;;;;3.40;55.55;98779.69;5088349;28;20194;-60
2024/01/29 11:45:54;;;;;;;6.20;3.23;;;;;;;3.33;55.24;98792.41;5086789;28;20248;-60